createdAt,value
2023-09-17T00:01:28.880Z,58.64
2023-09-17T00:03:55.921Z,59.56
2023-09-17T00:06:22.665Z,58.89
2023-09-17T00:08:49.098Z,59.59
2023-09-17T00:11:15.843Z,59.94
2023-09-17T00:13:43.725Z,59.40
2023-09-17T00:16:10.476Z,59.24
2023-09-17T00:18:37.030Z,59.58
2023-09-17T00:21:03.464Z,58.77
2023-09-17T00:23:29.941Z,59.53
2023-09-17T00:25:56.363Z,58.65
2023-09-17T00:28:22.792Z,59.10
2023-09-17T00:30:50.726Z,57.88
2023-09-17T00:33:17.226Z,58.09
2023-09-17T00:35:44.333Z,57.97
2023-09-17T00:38:10.795Z,60.30
2023-09-17T00:40:37.319Z,59.58
2023-09-17T00:43:04.273Z,59.17
2023-09-17T00:45:31.559Z,59.13
2023-09-17T00:48:00.536Z,58.90
2023-09-17T00:50:27.124Z,59.04
2023-09-17T00:52:53.820Z,59.20
2023-09-17T00:55:20.664Z,60.27
2023-09-17T00:57:47.274Z,60.95
2023-09-17T01:00:14.258Z,61.89
2023-09-17T01:02:42.550Z,63.32
2023-09-17T01:05:10.431Z,64.21
2023-09-17T01:07:37.165Z,65.31
2023-09-17T01:10:04.502Z,66.10
2023-09-17T01:12:31.783Z,68.41
2023-09-17T01:14:58.315Z,68.57
2023-09-17T01:17:24.949Z,68.78
2023-09-17T01:19:51.430Z,68.86
2023-09-17T01:22:26.160Z,69.37
2023-09-17T01:25:02.844Z,70.52
2023-09-17T01:27:31.856Z,71.26
2023-09-17T01:29:58.265Z,70.55
2023-09-17T01:32:24.785Z,70.89
2023-09-17T01:34:51.342Z,74.21
2023-09-17T01:37:21.696Z,75.16
2023-09-17T01:39:53.732Z,74.85
2023-09-17T01:42:22.184Z,76.30
2023-09-17T01:44:50.978Z,76.53
2023-09-17T01:47:18.279Z,75.61
2023-09-17T01:49:45.914Z,75.20
2023-09-17T01:52:13.073Z,75.14
2023-09-17T01:54:39.581Z,75.29
2023-09-17T01:57:06.148Z,75.80
2023-09-17T01:59:32.682Z,75.82
2023-09-17T02:02:00.544Z,76.43
2023-09-17T02:04:27.049Z,76.16
2023-09-17T02:06:53.479Z,76.96
2023-09-17T02:09:19.995Z,77.16
2023-09-17T02:11:46.410Z,78.84
2023-09-17T02:14:12.851Z,77.48
2023-09-17T02:16:41.466Z,78.27
2023-09-17T02:19:09.291Z,77.76
2023-09-17T02:21:35.687Z,79.08
2023-09-17T02:24:02.151Z,79.71
2023-09-17T02:26:28.572Z,79.11
2023-09-17T02:28:54.999Z,79.20
2023-09-17T02:31:21.665Z,77.95
2023-09-17T02:33:48.552Z,76.63
2023-09-17T02:36:16.446Z,76.89
2023-09-17T02:38:42.873Z,75.96
2023-09-17T02:41:09.295Z,75.40
2023-09-17T02:43:35.944Z,74.42
2023-09-17T02:46:02.466Z,74.29
2023-09-17T02:48:28.862Z,74.48
2023-09-17T02:50:55.357Z,74.82
2023-09-17T02:53:23.172Z,75.52
2023-09-17T02:55:49.743Z,75.13
2023-09-17T02:58:16.501Z,74.75
2023-09-17T03:00:42.972Z,74.26
2023-09-17T03:03:09.593Z,73.58
2023-09-17T03:05:36.158Z,75.07
2023-09-17T03:08:03.055Z,75.87
2023-09-17T03:10:30.929Z,76.28
2023-09-17T03:12:57.402Z,77.17
2023-09-17T03:15:23.898Z,77.59
2023-09-17T03:17:50.416Z,78.59
2023-09-17T03:20:16.898Z,78.81
2023-09-17T03:22:43.841Z,77.51
2023-09-17T03:25:11.461Z,77.58
2023-09-17T03:27:39.434Z,78.15
2023-09-17T03:30:07.344Z,77.13
2023-09-17T03:32:34.022Z,77.61
2023-09-17T03:35:01.207Z,77.34
2023-09-17T03:37:27.678Z,76.59
2023-09-17T03:40:05.615Z,76.15
2023-09-17T03:42:32.041Z,75.46
2023-09-17T03:44:59.900Z,76.59
2023-09-17T03:47:26.348Z,76.75
2023-09-17T03:49:52.852Z,75.05
2023-09-17T03:52:19.440Z,74.26
2023-09-17T03:54:46.003Z,74.07
2023-09-17T03:57:12.526Z,74.07
2023-09-17T03:59:39.012Z,73.89
2023-09-17T04:02:06.814Z,74.25
2023-09-17T04:04:33.406Z,74.34
2023-09-17T04:06:59.863Z,75.09
2023-09-17T04:09:26.343Z,74.75
2023-09-17T04:11:52.769Z,74.52
2023-09-17T04:14:19.269Z,74.04
2023-09-17T04:16:45.694Z,74.57
2023-09-17T04:19:13.622Z,75.60
2023-09-17T04:21:40.021Z,75.08
2023-09-17T04:24:07.196Z,74.39
2023-09-17T04:26:33.682Z,74.42
2023-09-17T04:29:00.103Z,74.13
2023-09-17T04:31:26.837Z,74.77
2023-09-17T04:33:53.524Z,74.38
2023-09-17T04:36:21.326Z,73.58
2023-09-17T04:38:47.823Z,73.74
2023-09-17T04:41:15.115Z,72.88
2023-09-17T04:43:41.584Z,72.91
2023-09-17T04:46:08.067Z,73.32
2023-09-17T04:48:34.467Z,72.81
2023-09-17T04:51:00.962Z,72.35
2023-09-17T04:53:28.771Z,72.84
2023-09-17T04:55:55.267Z,72.63
2023-09-17T04:58:21.750Z,72.26
2023-09-17T05:00:48.287Z,71.67
2023-09-17T05:03:14.801Z,71.97
2023-09-17T05:05:41.754Z,72.58
2023-09-17T05:08:08.242Z,72.88
2023-09-17T05:10:36.074Z,72.72
2023-09-17T05:13:02.712Z,72.89
2023-09-17T05:15:29.144Z,72.31
2023-09-17T05:17:55.624Z,72.44
2023-09-17T05:20:22.148Z,72.89
2023-09-17T05:22:48.572Z,72.72
2023-09-17T05:25:15.087Z,72.66
2023-09-17T05:27:43.014Z,72.04
2023-09-17T05:30:10.013Z,72.27
2023-09-17T05:32:36.749Z,71.82
2023-09-17T05:35:03.680Z,71.29
2023-09-17T05:37:30.149Z,71.37
2023-09-17T05:39:56.656Z,71.11
2023-09-17T05:42:23.223Z,71.35
2023-09-17T05:44:50.985Z,70.70
2023-09-17T05:47:17.433Z,70.94
2023-09-17T05:49:44.005Z,70.87
2023-09-17T05:52:10.531Z,70.31
2023-09-17T05:54:37.026Z,69.75
2023-09-17T05:57:04.692Z,69.18
2023-09-17T05:59:32.717Z,69.48
2023-09-17T06:02:00.771Z,69.25
2023-09-17T06:04:27.338Z,69.11
2023-09-17T06:06:53.752Z,68.92
2023-09-17T06:09:20.160Z,69.02
2023-09-17T06:11:47.546Z,68.97
2023-09-17T06:14:15.238Z,68.65
2023-09-17T06:16:55.972Z,68.50
2023-09-17T06:19:25.477Z,67.81
2023-09-17T06:21:53.331Z,67.82
2023-09-17T06:24:19.861Z,67.79
2023-09-17T06:26:46.311Z,67.52
2023-09-17T06:29:12.813Z,67.54
2023-09-17T06:31:40.148Z,66.85
2023-09-17T06:34:07.763Z,66.84
2023-09-17T06:36:35.596Z,65.98
2023-09-17T06:39:02.048Z,66.03
2023-09-17T06:41:28.524Z,66.16
2023-09-17T06:43:55.187Z,65.65
2023-09-17T06:46:21.922Z,65.71
2023-09-17T06:48:49.600Z,64.14
2023-09-17T06:51:21.379Z,63.37
2023-09-17T06:53:49.722Z,62.36
2023-09-17T06:56:16.730Z,62.02
2023-09-17T06:58:45.051Z,61.76
2023-09-17T07:01:11.554Z,61.41
2023-09-17T07:03:38.153Z,60.95
2023-09-17T07:06:04.700Z,59.74
2023-09-17T07:08:31.279Z,60.41
2023-09-17T07:10:59.031Z,59.34
2023-09-17T07:13:25.582Z,58.88
2023-09-17T07:15:52.108Z,58.56
2023-09-17T07:18:18.522Z,58.61
2023-09-17T07:20:44.979Z,58.35
2023-09-17T07:23:11.420Z,59.50
2023-09-17T07:25:37.856Z,58.72
2023-09-17T07:28:06.648Z,57.93
2023-09-17T07:30:33.212Z,57.26
2023-09-17T07:32:59.664Z,56.60
2023-09-17T07:35:26.408Z,55.30
2023-09-17T07:37:52.857Z,54.66
2023-09-17T07:40:19.336Z,53.65
2023-09-17T07:42:45.825Z,53.06
2023-09-17T07:45:13.630Z,52.85
2023-09-17T07:47:40.213Z,52.79
2023-09-17T07:50:07.813Z,52.38
2023-09-17T07:52:34.321Z,51.68
2023-09-17T07:55:00.977Z,50.75
2023-09-17T07:57:28.118Z,51.09
2023-09-17T07:59:54.538Z,51.11
2023-09-17T08:02:22.409Z,50.55
2023-09-17T08:04:48.911Z,50.86
2023-09-17T08:07:15.636Z,50.40
2023-09-17T08:09:42.048Z,50.22
2023-09-17T08:12:08.935Z,50.13
2023-09-17T08:14:35.778Z,50.26
2023-09-17T08:17:02.365Z,50.18
2023-09-17T08:19:30.197Z,50.17
2023-09-17T08:21:56.603Z,48.88
2023-09-17T08:24:23.251Z,49.75
2023-09-17T08:26:49.799Z,48.87
2023-09-17T08:29:16.266Z,47.41
2023-09-17T08:31:42.830Z,47.24
2023-09-17T08:34:09.331Z,47.29
2023-09-17T08:36:37.863Z,46.90
2023-09-17T08:39:04.296Z,46.44
2023-09-17T08:41:30.844Z,46.69
2023-09-17T08:43:58.407Z,46.77
2023-09-17T08:46:27.876Z,46.58
2023-09-17T08:48:54.642Z,45.95
2023-09-17T08:51:24.391Z,47.02
2023-09-17T08:54:02.038Z,46.15
2023-09-17T08:56:31.638Z,46.59
2023-09-17T08:59:04.638Z,46.20
2023-09-17T09:01:33.022Z,46.45
2023-09-17T09:04:01.156Z,45.61
2023-09-17T09:06:29.850Z,46.68
2023-09-17T09:08:58.624Z,46.73
2023-09-17T09:11:25.644Z,45.97
2023-09-17T09:13:52.458Z,47.21
2023-09-17T09:16:19.677Z,47.73
2023-09-17T09:18:46.219Z,47.78
2023-09-17T09:21:12.690Z,47.97
2023-09-17T09:23:39.168Z,48.21
2023-09-17T09:26:07.171Z,47.98
2023-09-17T09:28:34.638Z,47.28
2023-09-17T09:31:01.132Z,47.01
2023-09-17T09:33:27.754Z,46.26
2023-09-17T09:35:54.750Z,47.04
2023-09-17T09:38:21.315Z,47.28
2023-09-17T09:40:48.836Z,47.74
2023-09-17T09:43:30.260Z,47.55
2023-09-17T09:46:01.608Z,47.17
2023-09-17T09:48:28.165Z,47.26
2023-09-17T09:50:55.026Z,47.00
2023-09-17T09:53:21.415Z,47.78
2023-09-17T09:55:49.118Z,47.79
2023-09-17T09:58:16.035Z,46.67
2023-09-17T10:00:44.110Z,47.38
2023-09-17T10:03:10.619Z,47.32
2023-09-17T10:05:38.028Z,48.29
2023-09-17T10:08:05.295Z,47.41
2023-09-17T10:10:32.610Z,48.03
2023-09-17T10:13:00.543Z,49.21
2023-09-17T10:15:27.728Z,48.33
2023-09-17T10:17:57.147Z,48.36
2023-09-17T10:20:27.177Z,48.33
2023-09-17T10:22:55.337Z,47.47
2023-09-17T10:25:24.276Z,47.77
2023-09-17T10:27:54.937Z,46.56
2023-09-17T10:30:22.812Z,46.21
2023-09-17T10:32:51.357Z,46.17
2023-09-17T10:35:19.381Z,45.64
2023-09-17T10:37:46.957Z,45.60
2023-09-17T10:40:14.155Z,45.62
2023-09-17T10:42:40.902Z,45.16
2023-09-17T10:45:09.452Z,45.62
2023-09-17T10:47:36.280Z,45.99
2023-09-17T10:50:03.406Z,45.47
2023-09-17T10:52:31.392Z,45.21
2023-09-17T10:54:58.184Z,45.14
2023-09-17T10:57:32.951Z,44.87
2023-09-17T11:00:01.440Z,45.04
2023-09-17T11:02:31.880Z,44.99
2023-09-17T11:05:00.268Z,44.89
2023-09-17T11:07:27.592Z,44.32
2023-09-17T11:09:55.440Z,44.36
2023-09-17T11:12:22.581Z,44.79
2023-09-17T11:14:49.128Z,44.48
2023-09-17T11:17:17.546Z,43.98
2023-09-17T11:19:43.996Z,44.91
2023-09-17T11:22:13.221Z,43.98
2023-09-17T11:24:39.788Z,43.88
2023-09-17T11:27:07.536Z,44.22
2023-09-17T11:29:38.436Z,44.69
2023-09-17T11:32:05.176Z,44.96
2023-09-17T11:34:33.350Z,44.22
2023-09-17T11:36:59.935Z,44.37
2023-09-17T11:39:26.486Z,43.25
2023-09-17T11:41:55.392Z,43.79
2023-09-17T11:44:23.744Z,43.22
2023-09-17T11:46:50.749Z,43.09
2023-09-17T11:49:17.677Z,42.64
2023-09-17T11:51:45.498Z,42.67
2023-09-17T11:54:12.640Z,42.90
2023-09-17T11:56:46.236Z,42.02
2023-09-17T11:59:12.754Z,42.68
2023-09-17T12:01:43.243Z,42.96
2023-09-17T12:04:11.335Z,43.08
2023-09-17T12:06:39.768Z,43.54
2023-09-17T12:09:29.777Z,43.57
2023-09-17T12:11:56.732Z,43.70
2023-09-17T12:14:24.063Z,42.85
2023-09-17T12:16:54.744Z,43.07
2023-09-17T12:19:21.745Z,42.07
2023-09-17T12:21:49.837Z,42.99
2023-09-17T12:24:20.533Z,42.71
2023-09-17T12:27:06.990Z,42.47
2023-09-17T12:29:33.890Z,42.16
2023-09-17T12:32:02.186Z,41.87
2023-09-17T12:34:28.741Z,42.06
2023-09-17T12:36:55.152Z,42.26
2023-09-17T12:39:21.752Z,42.96
2023-09-17T12:41:48.270Z,43.03
2023-09-17T12:44:14.846Z,43.18
2023-09-17T12:46:41.929Z,43.01
2023-09-17T12:49:10.096Z,41.81
2023-09-17T12:51:37.891Z,41.23
2023-09-17T12:54:04.909Z,41.33
2023-09-17T12:56:33.254Z,40.36
2023-09-17T12:58:59.984Z,41.67
2023-09-17T13:01:26.454Z,41.30
2023-09-17T13:03:54.583Z,41.85
2023-09-17T13:06:24.464Z,41.39
2023-09-17T13:08:51.585Z,41.55
2023-09-17T13:11:18.905Z,41.13
2023-09-17T13:13:45.927Z,41.43
2023-09-17T13:16:13.023Z,41.33
2023-09-17T13:18:40.067Z,41.07
2023-09-17T13:21:09.868Z,41.37
2023-09-17T13:23:39.463Z,41.87
2023-09-17T13:26:07.309Z,41.50
2023-09-17T13:28:34.179Z,40.97
2023-09-17T13:31:01.593Z,41.55
2023-09-17T13:33:28.299Z,41.20
2023-09-17T13:35:55.093Z,41.67
2023-09-17T13:38:21.895Z,41.06
2023-09-17T13:40:51.299Z,41.32
2023-09-17T13:43:18.460Z,41.77
2023-09-17T13:45:55.637Z,41.73
2023-09-17T13:48:22.744Z,41.28
2023-09-17T13:50:49.568Z,40.84
2023-09-17T13:53:16.646Z,40.61
2023-09-17T13:55:43.367Z,40.58
2023-09-17T13:58:12.408Z,40.60
2023-09-17T14:00:38.917Z,40.47
2023-09-17T14:03:10.250Z,40.15
2023-09-17T14:05:36.710Z,40.29
2023-09-17T14:08:03.316Z,39.98
2023-09-17T14:10:30.046Z,39.64
2023-09-17T14:12:56.773Z,39.25
2023-09-17T14:15:24.623Z,38.94
2023-09-17T14:17:51.102Z,38.36
2023-09-17T14:20:17.627Z,38.05
2023-09-17T14:22:44.116Z,37.44
2023-09-17T14:25:10.568Z,37.78
2023-09-17T14:27:37.093Z,37.51
2023-09-17T14:30:04.202Z,37.93
2023-09-17T14:32:32.292Z,37.39
2023-09-17T14:34:58.952Z,38.01
2023-09-17T14:37:27.056Z,37.67
2023-09-17T14:39:53.449Z,37.69
2023-09-17T14:42:20.565Z,37.97
2023-09-17T14:44:46.976Z,38.02
2023-09-17T14:47:13.530Z,37.21
2023-09-17T14:49:41.340Z,37.44
2023-09-17T14:52:07.804Z,37.33
2023-09-17T14:54:34.597Z,38.31
2023-09-17T14:57:01.019Z,38.77
2023-09-17T14:59:27.512Z,38.65
2023-09-17T15:02:00.411Z,39.17
2023-09-17T15:04:27.612Z,38.58
2023-09-17T15:06:55.562Z,38.98
2023-09-17T15:09:26.964Z,38.84
2023-09-17T15:11:53.837Z,38.99
2023-09-17T15:14:20.313Z,39.60
2023-09-17T15:16:46.812Z,38.93
2023-09-17T15:19:13.280Z,38.92
2023-09-17T15:21:39.697Z,39.78
2023-09-17T15:24:08.008Z,40.58
2023-09-17T15:26:34.410Z,39.21
2023-09-17T15:29:00.853Z,40.17
2023-09-17T15:31:27.357Z,39.73
2023-09-17T15:33:53.897Z,39.11
2023-09-17T15:36:20.724Z,40.05
2023-09-17T15:38:47.230Z,40.50
2023-09-17T15:41:15.178Z,40.72
2023-09-17T15:43:42.284Z,40.70
2023-09-17T15:46:09.077Z,40.28
2023-09-17T15:48:35.598Z,39.72
2023-09-17T15:51:02.724Z,39.65
2023-09-17T15:53:29.172Z,39.61
2023-09-17T15:55:56.299Z,41.75
2023-09-17T15:58:24.120Z,41.69
2023-09-17T16:00:50.627Z,42.01
2023-09-17T16:03:17.221Z,42.55
2023-09-17T16:05:44.054Z,42.31
2023-09-17T16:08:11.196Z,41.97
2023-09-17T16:10:39.539Z,42.67
2023-09-17T16:13:06.799Z,42.66
2023-09-17T16:15:34.649Z,42.95
2023-09-17T16:18:01.109Z,43.65
2023-09-17T16:20:27.648Z,44.10
2023-09-17T16:22:54.106Z,44.34
2023-09-17T16:25:20.711Z,44.77
2023-09-17T16:27:47.188Z,44.91
2023-09-17T16:30:14.354Z,44.59
2023-09-17T16:32:42.491Z,45.17
2023-09-17T16:35:10.038Z,45.57
2023-09-17T16:37:36.681Z,46.49
2023-09-17T16:40:03.517Z,46.29
2023-09-17T16:42:30.480Z,46.91
2023-09-17T16:45:01.775Z,47.08
2023-09-17T16:47:29.712Z,47.12
2023-09-17T16:49:57.665Z,47.89
2023-09-17T16:52:25.622Z,47.74
2023-09-17T16:54:52.063Z,48.02
2023-09-17T16:57:18.895Z,48.33
2023-09-17T16:59:45.909Z,49.22
2023-09-17T17:02:14.258Z,50.24
2023-09-17T17:04:40.877Z,51.08
2023-09-17T17:07:08.768Z,51.24
2023-09-17T17:09:37.756Z,52.44
2023-09-17T17:12:09.040Z,52.45
2023-09-17T17:14:35.653Z,52.91
2023-09-17T17:17:02.245Z,53.66
2023-09-17T17:19:28.824Z,53.76
2023-09-17T17:21:55.420Z,54.47
2023-09-17T17:24:23.194Z,54.42
2023-09-17T17:26:49.768Z,55.19
2023-09-17T17:29:19.053Z,55.43
2023-09-17T17:31:45.696Z,55.40
2023-09-17T17:34:12.339Z,56.51
2023-09-17T17:36:38.866Z,56.51
2023-09-17T17:39:05.366Z,56.63
2023-09-17T17:41:33.258Z,57.05
2023-09-17T17:44:00.082Z,57.43
2023-09-17T17:46:26.901Z,57.26
2023-09-17T17:48:53.382Z,57.71
2023-09-17T17:51:19.891Z,58.37
2023-09-17T17:53:46.555Z,58.01
2023-09-17T17:56:14.174Z,57.66
2023-09-17T17:58:42.072Z,57.45
2023-09-17T18:01:08.718Z,58.30
2023-09-17T18:03:35.322Z,58.23
2023-09-17T18:06:01.862Z,58.48
2023-09-17T18:08:28.594Z,58.59
2023-09-17T18:10:55.165Z,59.08
2023-09-17T18:13:21.792Z,59.47
2023-09-17T18:15:49.977Z,58.94
2023-09-17T18:18:16.628Z,58.96
2023-09-17T18:20:44.566Z,58.26
2023-09-17T18:23:11.120Z,57.90
2023-09-17T18:25:37.587Z,57.39
2023-09-17T18:28:04.492Z,57.29
2023-09-17T18:30:30.911Z,57.50
2023-09-17T18:32:58.743Z,57.26
2023-09-17T18:35:25.350Z,57.43
2023-09-17T18:37:51.926Z,57.43
2023-09-17T18:40:18.476Z,58.16
2023-09-17T18:42:44.922Z,57.70
2023-09-17T18:45:13.171Z,58.03
2023-09-17T18:47:40.151Z,58.31
2023-09-17T18:50:08.882Z,58.80
2023-09-17T18:52:35.375Z,58.93
2023-09-17T18:55:01.999Z,58.62
2023-09-17T18:57:33.743Z,58.82
2023-09-17T19:00:00.197Z,59.17
2023-09-17T19:02:26.944Z,59.63
2023-09-17T19:04:53.579Z,59.64
2023-09-17T19:07:21.509Z,59.95
2023-09-17T19:09:48.187Z,60.57
2023-09-17T19:12:14.693Z,60.37
2023-09-17T19:14:41.190Z,60.74
2023-09-17T19:17:07.782Z,60.91
2023-09-17T19:19:34.634Z,61.14
2023-09-17T19:22:02.587Z,61.40
2023-09-17T19:24:30.449Z,61.94
2023-09-17T19:26:57.047Z,62.06
2023-09-17T19:29:23.536Z,61.65
2023-09-17T19:31:50.111Z,61.71
2023-09-17T19:34:16.763Z,61.81
2023-09-17T19:36:43.416Z,62.25
2023-09-17T19:39:09.923Z,62.67
2023-09-17T19:41:37.724Z,62.65
2023-09-17T19:44:04.273Z,62.77
2023-09-17T19:46:30.762Z,62.90
2023-09-17T19:48:57.411Z,63.54
2023-09-17T19:51:24.037Z,63.66
2023-09-17T19:53:50.845Z,63.75
2023-09-17T19:56:19.335Z,63.64
2023-09-17T19:58:47.760Z,63.58
2023-09-17T20:01:14.254Z,63.68
2023-09-17T20:03:41.114Z,63.48
2023-09-17T20:06:07.701Z,63.35
2023-09-17T20:08:34.246Z,63.01
2023-09-17T20:11:00.776Z,62.82
2023-09-17T20:13:27.474Z,62.54
2023-09-17T20:15:55.311Z,62.36
2023-09-17T20:18:21.780Z,62.44
2023-09-17T20:20:48.280Z,62.44
2023-09-17T20:23:14.888Z,62.36
2023-09-17T20:25:41.674Z,62.11
2023-09-17T20:28:08.125Z,62.23
2023-09-17T20:30:34.597Z,61.88
2023-09-17T20:33:02.430Z,61.73
2023-09-17T20:35:29.027Z,61.82
2023-09-17T20:37:55.535Z,61.56
2023-09-17T20:40:22.004Z,61.68
2023-09-17T20:42:48.741Z,61.41
2023-09-17T20:45:15.158Z,62.01
2023-09-17T20:47:41.857Z,61.25
2023-09-17T20:50:10.349Z,61.29
2023-09-17T20:52:37.951Z,61.34
2023-09-17T20:55:05.484Z,60.94
2023-09-17T20:57:32.249Z,60.94
2023-09-17T20:59:58.934Z,61.20
2023-09-17T21:02:25.733Z,61.50
2023-09-17T21:04:52.455Z,60.58
2023-09-17T21:07:20.271Z,60.82
2023-09-17T21:09:46.723Z,61.00
2023-09-17T21:12:13.157Z,60.95
2023-09-17T21:14:39.874Z,60.62
2023-09-17T21:17:06.462Z,61.00
2023-09-17T21:19:33.239Z,60.99
2023-09-17T21:21:59.719Z,60.58
2023-09-17T21:24:27.501Z,60.75
2023-09-17T21:26:54.032Z,60.94
2023-09-17T21:29:20.630Z,60.70
2023-09-17T21:31:47.358Z,60.95
2023-09-17T21:34:13.822Z,60.81
2023-09-17T21:36:40.334Z,61.02
2023-09-17T21:39:06.895Z,61.54
2023-09-17T21:41:35.122Z,61.19
2023-09-17T21:44:01.976Z,61.01
2023-09-17T21:46:28.490Z,61.13
2023-09-17T21:48:59.407Z,60.95
2023-09-17T21:51:25.849Z,60.87
2023-09-17T21:53:52.636Z,60.86
2023-09-17T21:56:19.270Z,60.95
2023-09-17T21:58:47.131Z,60.56
2023-09-17T22:01:13.631Z,60.69
2023-09-17T22:03:40.252Z,60.41
2023-09-17T22:06:06.772Z,60.39
2023-09-17T22:08:33.317Z,60.42
2023-09-17T22:11:04.730Z,60.33
2023-09-17T22:13:31.371Z,60.38
2023-09-17T22:15:59.108Z,60.18
2023-09-17T22:18:25.632Z,60.33
2023-09-17T22:21:04.920Z,60.08
2023-09-17T22:23:31.444Z,60.40
2023-09-17T22:25:57.903Z,60.25
2023-09-17T22:28:24.544Z,60.23
2023-09-17T22:30:51.269Z,60.05
2023-09-17T22:33:19.183Z,59.84
2023-09-17T22:35:45.656Z,60.16
2023-09-17T22:38:12.149Z,59.56
2023-09-17T22:40:39.402Z,59.82
2023-09-17T22:43:08.617Z,59.44
2023-09-17T22:45:37.619Z,59.18
2023-09-17T22:48:04.989Z,58.92
2023-09-17T22:50:32.929Z,58.78
2023-09-17T22:52:59.428Z,58.61
2023-09-17T22:55:25.942Z,58.46
2023-09-17T22:57:52.381Z,58.13
2023-09-17T23:00:18.939Z,58.12
2023-09-17T23:02:45.512Z,58.12
2023-09-17T23:05:12.065Z,57.56
2023-09-17T23:07:39.846Z,57.76
2023-09-17T23:10:07.182Z,57.40
2023-09-17T23:12:33.612Z,57.49
2023-09-17T23:15:00.163Z,57.53
2023-09-17T23:17:26.663Z,57.20
2023-09-17T23:19:53.176Z,57.37
2023-09-17T23:22:19.731Z,57.44
2023-09-17T23:24:47.561Z,56.95
2023-09-17T23:27:14.048Z,56.73
2023-09-17T23:29:40.443Z,56.56
2023-09-17T23:32:07.037Z,56.40
2023-09-17T23:34:33.509Z,56.48
2023-09-17T23:37:00.004Z,56.36
2023-09-17T23:39:26.437Z,56.39
2023-09-17T23:41:54.276Z,56.31
2023-09-17T23:44:20.820Z,56.11
2023-09-17T23:46:47.292Z,56.30
2023-09-17T23:49:13.822Z,56.17
2023-09-17T23:51:40.223Z,56.31
2023-09-17T23:54:06.927Z,56.21
2023-09-17T23:56:33.413Z,56.10
2023-09-17T23:59:01.288Z,56.16
